createdAt,value
2022-08-14T00:02:01.678Z,20.40
2022-08-14T00:04:35.473Z,20.38
2022-08-14T00:07:11.145Z,20.39
2022-08-14T00:09:39.902Z,20.21
2022-08-14T00:12:33.497Z,20.26
2022-08-14T00:15:10.151Z,20.17
2022-08-14T00:17:48.053Z,20.15
2022-08-14T00:20:30.432Z,19.88
2022-08-14T00:23:08.385Z,20.16
2022-08-14T00:25:43.868Z,20.13
2022-08-14T00:28:32.454Z,20.04
2022-08-14T00:31:00.872Z,19.93
2022-08-14T00:33:50.776Z,19.63
2022-08-14T00:36:36.689Z,19.82
2022-08-14T00:39:06.493Z,20.13
2022-08-14T00:41:38.787Z,19.93
2022-08-14T00:44:08.871Z,20.02
2022-08-14T00:46:38.512Z,19.93
2022-08-14T00:49:08.084Z,19.92
2022-08-14T00:51:41.136Z,19.97
2022-08-14T00:54:16.900Z,19.89
2022-08-14T00:56:51.623Z,20.04
2022-08-14T00:59:25.939Z,20.00
2022-08-14T01:01:58.593Z,19.95
2022-08-14T01:04:37.913Z,19.93
2022-08-14T01:07:20.497Z,19.84
2022-08-14T01:09:50.244Z,19.47
2022-08-14T01:12:26.938Z,19.76
2022-08-14T01:14:59.938Z,19.63
2022-08-14T01:17:49.831Z,19.77
2022-08-14T01:20:39.181Z,19.83
2022-08-14T01:23:16.820Z,19.79
2022-08-14T01:25:51.450Z,19.64
2022-08-14T01:28:46.351Z,19.58
2022-08-14T01:31:12.259Z,19.58
2022-08-14T01:35:16.588Z,19.48
2022-08-14T01:36:36.837Z,19.37
2022-08-14T01:39:12.673Z,19.30
2022-08-14T01:41:43.442Z,19.03
2022-08-14T01:44:33.364Z,19.18
2022-08-14T01:47:11.849Z,19.20
2022-08-14T01:49:45.773Z,19.27
2022-08-14T01:52:34.681Z,19.18
2022-08-14T01:55:06.711Z,19.25
2022-08-14T01:58:00.798Z,19.28
2022-08-14T02:00:27.698Z,19.33
2022-08-14T02:02:57.003Z,19.37
2022-08-14T02:05:29.422Z,19.34
2022-08-14T02:08:09.172Z,19.28
2022-08-14T02:10:46.222Z,19.22
2022-08-14T02:13:16.149Z,19.02
2022-08-14T02:15:44.964Z,18.73
2022-08-14T02:18:15.317Z,18.92
2022-08-14T02:20:43.492Z,18.87
2022-08-14T02:23:11.859Z,18.90
2022-08-14T02:25:41.187Z,18.89
2022-08-14T02:28:24.170Z,18.98
2022-08-14T02:30:57.123Z,19.02
2022-08-14T02:33:25.214Z,18.92
2022-08-14T02:36:00.552Z,18.92
2022-08-14T02:38:34.275Z,18.84
2022-08-14T02:41:09.050Z,18.75
2022-08-14T02:43:46.375Z,18.74
2022-08-14T02:46:20.763Z,18.33
2022-08-14T02:49:04.443Z,18.59
2022-08-14T02:51:36.405Z,18.67
2022-08-14T02:54:07.132Z,18.64
2022-08-14T02:57:16.281Z,18.61
2022-08-14T02:59:29.512Z,18.62
2022-08-14T03:02:03.703Z,18.64
2022-08-14T03:04:32.995Z,18.58
2022-08-14T03:07:07.487Z,18.64
2022-08-14T03:10:25.089Z,18.73
2022-08-14T03:12:30.983Z,18.65
2022-08-14T03:15:02.747Z,18.61
2022-08-14T03:17:32.019Z,18.51
2022-08-14T03:20:11.939Z,18.51
2022-08-14T03:22:42.085Z,18.02
2022-08-14T03:25:12.152Z,18.43
2022-08-14T03:27:48.555Z,18.43
2022-08-14T03:30:39.580Z,18.37
2022-08-14T03:33:11.227Z,18.45
2022-08-14T03:35:59.862Z,18.36
2022-08-14T03:39:14.853Z,18.33
2022-08-14T03:41:20.232Z,18.28
2022-08-14T03:43:57.751Z,18.18
2022-08-14T03:46:51.841Z,17.92
2022-08-14T03:49:24.277Z,18.22
2022-08-14T03:51:57.800Z,18.13
2022-08-14T03:54:26.301Z,18.13
2022-08-14T03:56:54.971Z,18.02
2022-08-14T03:59:24.366Z,18.16
2022-08-14T04:02:01.450Z,18.23
2022-08-14T04:04:30.702Z,18.17
2022-08-14T04:06:59.348Z,18.15
2022-08-14T04:09:27.504Z,17.92
2022-08-14T04:11:56.029Z,18.02
2022-08-14T04:14:25.673Z,16.73
2022-08-14T04:16:53.720Z,18.16
2022-08-14T04:19:23.757Z,18.23
2022-08-14T04:22:02.953Z,18.16
2022-08-14T04:24:38.949Z,18.15
2022-08-14T04:27:09.977Z,18.12
2022-08-14T04:29:40.415Z,18.13
2022-08-14T04:33:02.205Z,18.02
2022-08-14T04:35:00.009Z,18.23
2022-08-14T04:37:45.821Z,18.49
2022-08-14T04:40:32.781Z,18.51
2022-08-14T04:43:20.917Z,18.94
2022-08-14T04:45:51.389Z,19.14
2022-08-14T04:48:39.415Z,19.28
2022-08-14T04:51:10.807Z,19.33
2022-08-14T04:53:43.156Z,19.34
2022-08-14T04:56:30.975Z,19.31
2022-08-14T04:59:09.378Z,19.38
2022-08-14T05:01:41.696Z,19.31
2022-08-14T05:04:19.638Z,19.31
2022-08-14T05:06:49.057Z,19.31
2022-08-14T05:09:17.937Z,19.35
2022-08-14T05:11:45.978Z,19.63
2022-08-14T05:14:43.080Z,19.72
2022-08-14T05:17:03.709Z,19.78
2022-08-14T05:19:32.008Z,19.80
2022-08-14T05:22:17.241Z,19.87
2022-08-14T05:24:50.559Z,19.95
2022-08-14T05:27:23.153Z,19.93
2022-08-14T05:29:55.058Z,19.64
2022-08-14T05:32:27.289Z,20.08
2022-08-14T05:34:57.873Z,20.10
2022-08-14T05:37:26.599Z,20.02
2022-08-14T05:39:55.298Z,20.24
2022-08-14T05:42:29.071Z,20.31
2022-08-14T05:44:59.776Z,20.49
2022-08-14T05:47:38.871Z,20.63
2022-08-14T05:50:17.545Z,20.68
2022-08-14T05:52:49.258Z,20.69
2022-08-14T05:55:22.633Z,20.83
2022-08-14T05:57:53.838Z,20.95
2022-08-14T06:00:25.026Z,20.88
2022-08-14T06:03:00.017Z,21.10
2022-08-14T06:05:29.546Z,21.17
2022-08-14T06:07:58.237Z,21.32
2022-08-14T06:10:28.283Z,21.25
2022-08-14T06:12:58.139Z,21.43
2022-08-14T06:15:30.483Z,21.64
2022-08-14T06:18:01.708Z,21.78
2022-08-14T06:20:31.511Z,21.87
2022-08-14T06:23:02.700Z,21.83
2022-08-14T06:25:31.882Z,21.96
2022-08-14T06:28:03.937Z,22.14
2022-08-14T06:30:45.939Z,22.25
2022-08-14T06:33:17.950Z,22.54
2022-08-14T06:35:47.013Z,22.45
2022-08-14T06:38:17.769Z,22.36
2022-08-14T06:40:46.626Z,22.15
2022-08-14T06:43:15.766Z,22.77
2022-08-14T06:45:54.013Z,22.85
2022-08-14T06:48:25.635Z,23.07
2022-08-14T06:50:57.932Z,23.22
2022-08-14T06:53:27.727Z,23.29
2022-08-14T06:56:01.102Z,23.41
2022-08-14T06:58:32.266Z,23.52
2022-08-14T07:01:27.073Z,23.69
2022-08-14T07:04:22.648Z,23.72
2022-08-14T07:06:51.405Z,23.79
2022-08-14T07:09:23.407Z,23.97
2022-08-14T07:11:51.845Z,24.07
2022-08-14T07:14:20.111Z,24.17
2022-08-14T07:16:48.046Z,24.26
2022-08-14T07:19:20.735Z,24.41
2022-08-14T07:21:50.218Z,24.64
2022-08-14T07:24:21.858Z,24.69
2022-08-14T07:26:54.801Z,24.74
2022-08-14T07:29:26.238Z,24.92
2022-08-14T07:31:56.722Z,24.74
2022-08-14T07:34:36.637Z,25.16
2022-08-14T07:37:11.162Z,25.16
2022-08-14T07:39:39.106Z,25.20
2022-08-14T07:42:11.417Z,25.40
2022-08-14T07:44:46.600Z,25.44
2022-08-14T07:47:18.564Z,25.51
2022-08-14T07:50:02.456Z,25.48
2022-08-14T07:52:31.966Z,25.73
2022-08-14T07:55:02.163Z,25.53
2022-08-14T07:57:30.140Z,25.71
2022-08-14T07:59:58.030Z,26.05
2022-08-14T08:02:32.694Z,25.98
2022-08-14T08:05:03.468Z,26.21
2022-08-14T08:07:33.025Z,26.22
2022-08-14T08:10:46.182Z,26.50
2022-08-14T08:13:16.370Z,26.53
2022-08-14T08:15:47.289Z,26.48
2022-08-14T08:18:20.444Z,26.45
2022-08-14T08:20:59.569Z,26.67
2022-08-14T08:23:34.458Z,26.73
2022-08-14T08:26:08.260Z,26.68
2022-08-14T08:28:36.350Z,26.33
2022-08-14T08:31:06.702Z,26.67
2022-08-14T08:33:38.549Z,26.61
2022-08-14T08:36:13.033Z,26.69
2022-08-14T08:39:16.953Z,26.81
2022-08-14T08:41:43.442Z,26.49
2022-08-14T08:44:17.290Z,26.79
2022-08-14T08:47:01.582Z,26.96
2022-08-14T08:49:42.805Z,26.93
2022-08-14T08:52:24.380Z,26.81
2022-08-14T08:54:56.739Z,27.22
2022-08-14T08:57:24.788Z,27.30
2022-08-14T08:59:58.498Z,27.30
2022-08-14T09:02:27.595Z,27.35
2022-08-14T09:05:03.373Z,27.19
2022-08-14T09:07:32.671Z,27.40
2022-08-14T09:10:01.602Z,27.55
2022-08-14T09:12:32.414Z,27.48
2022-08-14T09:15:03.018Z,27.14
2022-08-14T09:17:30.968Z,27.62
2022-08-14T09:20:01.977Z,27.65
2022-08-14T09:22:35.018Z,27.85
2022-08-14T09:25:07.835Z,27.63
2022-08-14T09:27:37.555Z,27.36
2022-08-14T09:30:31.525Z,27.42
2022-08-14T09:33:13.199Z,27.53
2022-08-14T09:36:00.268Z,27.76
2022-08-14T09:38:40.546Z,27.66
2022-08-14T09:41:24.591Z,27.54
2022-08-14T09:44:00.058Z,27.66
2022-08-14T09:46:32.602Z,27.50
2022-08-14T09:49:01.419Z,27.77
2022-08-14T09:51:32.887Z,27.78
2022-08-14T09:54:18.916Z,27.89
2022-08-14T09:56:57.510Z,27.83
2022-08-14T09:59:32.049Z,27.89
2022-08-14T10:02:01.084Z,27.96
2022-08-14T10:04:35.992Z,27.74
2022-08-14T10:07:08.087Z,27.93
2022-08-14T10:09:59.558Z,28.08
2022-08-14T10:12:52.931Z,28.03
2022-08-14T10:15:23.943Z,28.02
2022-08-14T10:18:03.762Z,28.13
2022-08-14T10:20:40.865Z,28.03
2022-08-14T10:23:16.279Z,28.02
2022-08-14T10:25:50.744Z,28.18
2022-08-14T10:29:03.450Z,28.20
2022-08-14T10:31:19.794Z,28.23
2022-08-14T10:34:01.766Z,28.37
2022-08-14T10:36:34.976Z,28.34
2022-08-14T10:39:15.992Z,28.14
2022-08-14T10:41:48.637Z,28.31
2022-08-14T10:44:29.667Z,28.09
2022-08-14T10:47:38.968Z,28.15
2022-08-14T10:49:59.748Z,28.31
2022-08-14T10:52:31.716Z,28.55
2022-08-14T10:55:13.992Z,28.49
2022-08-14T10:57:53.149Z,28.50
2022-08-14T11:00:29.934Z,28.25
2022-08-14T11:03:09.543Z,28.57
2022-08-14T11:05:43.316Z,28.63
2022-08-14T11:08:14.628Z,28.65
2022-08-14T11:10:46.952Z,28.63
2022-08-14T11:13:21.280Z,28.71
2022-08-14T11:15:56.158Z,28.86
2022-08-14T11:18:30.484Z,28.79
2022-08-14T11:21:06.905Z,28.65
2022-08-14T11:23:41.353Z,28.66
2022-08-14T11:26:13.990Z,28.57
2022-08-14T11:28:47.150Z,28.68
2022-08-14T11:31:22.073Z,28.52
2022-08-14T11:33:57.656Z,28.61
2022-08-14T11:36:35.458Z,28.62
2022-08-14T11:39:33.457Z,28.56
2022-08-14T11:42:55.568Z,28.66
2022-08-14T11:44:56.741Z,28.75
2022-08-14T11:47:35.667Z,28.79
2022-08-14T11:50:33.422Z,28.61
2022-08-14T11:53:04.455Z,28.38
2022-08-14T11:55:38.121Z,28.38
2022-08-14T11:58:10.575Z,28.40
2022-08-14T12:00:48.481Z,28.27
2022-08-14T12:03:27.273Z,28.26
2022-08-14T12:06:28.002Z,28.66
2022-08-14T12:08:59.854Z,28.63
2022-08-14T12:11:44.005Z,28.95
2022-08-14T12:14:30.778Z,28.96
2022-08-14T12:17:06.659Z,29.07
2022-08-14T12:19:53.872Z,28.98
2022-08-14T12:22:34.430Z,29.21
2022-08-14T12:25:08.467Z,29.34
2022-08-14T12:27:52.621Z,29.44
2022-08-14T12:30:35.995Z,29.37
2022-08-14T12:33:24.074Z,29.45
2022-08-14T12:35:58.440Z,29.51
2022-08-14T12:38:35.979Z,29.68
2022-08-14T12:41:06.451Z,29.91
2022-08-14T12:43:48.037Z,30.25
2022-08-14T12:46:28.831Z,29.98
2022-08-14T12:48:59.038Z,29.85
2022-08-14T12:51:30.833Z,29.83
2022-08-14T12:54:00.597Z,29.66
2022-08-14T12:56:33.876Z,29.39
2022-08-14T12:59:04.615Z,29.59
2022-08-14T13:01:59.611Z,29.67
2022-08-14T13:04:23.189Z,29.77
2022-08-14T13:06:53.775Z,29.32
2022-08-14T13:09:35.867Z,29.22
2022-08-14T13:12:33.517Z,29.16
2022-08-14T13:14:59.745Z,29.43
2022-08-14T13:17:29.620Z,29.37
2022-08-14T13:20:10.458Z,29.54
2022-08-14T13:22:54.891Z,29.64
2022-08-14T13:25:25.895Z,29.40
2022-08-14T13:27:57.538Z,29.28
2022-08-14T13:30:26.959Z,29.29
2022-08-14T13:32:58.480Z,29.50
2022-08-14T13:35:27.822Z,29.10
2022-08-14T13:37:59.111Z,29.58
2022-08-14T13:40:27.679Z,29.74
2022-08-14T13:42:57.551Z,28.67
2022-08-14T13:45:33.974Z,29.83
2022-08-14T13:48:32.294Z,29.50
2022-08-14T13:51:02.784Z,29.47
2022-08-14T13:53:35.022Z,29.67
2022-08-14T13:56:07.583Z,29.74
2022-08-14T13:58:46.927Z,29.86
2022-08-14T14:01:19.029Z,29.89
2022-08-14T14:03:52.659Z,29.83
2022-08-14T14:06:25.136Z,29.66
2022-08-14T14:08:58.980Z,28.70
2022-08-14T14:11:30.041Z,29.57
2022-08-14T14:13:59.895Z,29.62
2022-08-14T14:16:30.718Z,29.48
2022-08-14T14:19:08.938Z,29.47
2022-08-14T14:21:40.844Z,29.39
2022-08-14T14:24:15.511Z,29.48
2022-08-14T14:26:50.240Z,29.59
2022-08-14T14:29:24.014Z,29.67
2022-08-14T14:31:54.977Z,29.64
2022-08-14T14:34:29.513Z,29.52
2022-08-14T14:37:02.660Z,29.47
2022-08-14T14:39:37.460Z,29.64
2022-08-14T14:42:08.255Z,29.71
2022-08-14T14:44:41.382Z,29.82
2022-08-14T14:47:12.137Z,29.89
2022-08-14T14:49:51.126Z,29.64
2022-08-14T14:52:27.289Z,30.00
2022-08-14T14:54:58.988Z,30.07
2022-08-14T14:57:35.225Z,30.38
2022-08-14T15:00:08.713Z,30.13
2022-08-14T15:02:43.563Z,30.49
2022-08-14T15:05:14.085Z,30.44
2022-08-14T15:07:42.683Z,30.07
2022-08-14T15:10:27.271Z,29.67
2022-08-14T15:13:00.116Z,28.73
2022-08-14T15:15:32.711Z,28.04
2022-08-14T15:18:01.619Z,27.90
2022-08-14T15:20:31.336Z,27.87
2022-08-14T15:23:00.768Z,27.55
2022-08-14T15:25:31.876Z,27.95
2022-08-14T15:28:00.860Z,27.98
2022-08-14T15:30:32.758Z,28.18
2022-08-14T15:33:00.944Z,28.42
2022-08-14T15:35:33.916Z,28.48
2022-08-14T15:38:07.998Z,28.51
2022-08-14T15:40:41.308Z,28.69
2022-08-14T15:43:10.855Z,28.85
2022-08-14T15:45:42.165Z,28.95
2022-08-14T15:48:13.981Z,29.13
2022-08-14T15:50:51.676Z,29.17
2022-08-14T15:53:20.547Z,29.44
2022-08-14T15:55:50.241Z,29.50
2022-08-14T15:58:21.745Z,29.60
2022-08-14T16:01:43.301Z,29.67
2022-08-14T16:04:07.422Z,29.75
2022-08-14T16:06:35.355Z,29.68
2022-08-14T16:09:11.047Z,29.54
2022-08-14T16:11:43.236Z,29.32
2022-08-14T16:14:15.549Z,29.68
2022-08-14T16:16:59.796Z,29.69
2022-08-14T16:19:32.033Z,29.61
2022-08-14T16:25:00.012Z,29.81
2022-08-14T16:27:39.170Z,29.70
2022-08-14T16:30:24.581Z,29.75
2022-08-14T16:32:59.158Z,29.70
2022-08-14T16:35:42.942Z,29.54
2022-08-14T16:38:35.747Z,28.90
2022-08-14T16:40:24.557Z,29.73
2022-08-14T16:41:22.287Z,29.48
2022-08-14T16:43:58.846Z,29.49
2022-08-14T16:46:28.080Z,29.10
2022-08-14T16:48:58.857Z,29.45
2022-08-14T16:51:27.976Z,29.48
2022-08-14T16:53:57.265Z,29.53
2022-08-14T16:56:30.883Z,29.44
2022-08-14T16:59:12.093Z,29.57
2022-08-14T17:01:44.239Z,29.46
2022-08-14T17:04:25.223Z,29.42
2022-08-14T17:06:55.499Z,29.21
2022-08-14T17:09:36.526Z,29.33
2022-08-14T17:12:34.015Z,29.20
2022-08-14T17:15:10.461Z,29.33
2022-08-14T17:17:58.335Z,29.29
2022-08-14T17:20:39.780Z,29.10
2022-08-14T17:23:16.301Z,29.02
2022-08-14T17:25:51.093Z,29.14
2022-08-14T17:28:51.802Z,29.18
2022-08-14T17:31:12.558Z,29.07
2022-08-14T17:33:44.596Z,28.96
2022-08-14T17:36:22.984Z,29.02
2022-08-14T17:39:06.294Z,28.92
2022-08-14T17:41:38.721Z,28.80
2022-08-14T17:44:34.330Z,28.83
2022-08-14T17:47:18.366Z,28.52
2022-08-14T17:49:52.329Z,28.64
2022-08-14T17:52:34.186Z,28.57
2022-08-14T17:55:03.458Z,28.47
2022-08-14T17:57:35.389Z,28.28
2022-08-14T18:00:17.777Z,28.26
2022-08-14T18:02:50.390Z,28.19
2022-08-14T18:05:23.375Z,28.13
2022-08-14T18:08:31.277Z,28.02
2022-08-14T18:10:55.292Z,27.81
2022-08-14T18:13:49.857Z,27.95
2022-08-14T18:16:20.356Z,27.73
2022-08-14T18:18:53.121Z,27.77
2022-08-14T18:21:40.782Z,27.72
2022-08-14T18:24:28.011Z,27.61
2022-08-14T18:27:09.046Z,27.39
2022-08-14T18:29:42.995Z,27.46
2022-08-14T18:32:47.331Z,27.36
2022-08-14T18:35:45.378Z,27.29
2022-08-14T18:38:26.351Z,27.18
2022-08-14T18:41:37.284Z,26.97
2022-08-14T18:44:10.174Z,27.11
2022-08-14T18:47:08.675Z,27.07
2022-08-14T18:50:03.545Z,27.19
2022-08-14T18:52:54.269Z,27.14
2022-08-14T18:55:53.845Z,27.04
2022-08-14T18:58:31.692Z,26.98
2022-08-14T19:01:04.354Z,26.95
2022-08-14T19:03:56.252Z,26.88
2022-08-14T19:06:56.542Z,26.77
2022-08-14T19:09:57.857Z,26.79
2022-08-14T19:13:11.611Z,26.73
2022-08-14T19:15:43.939Z,26.68
2022-08-14T19:18:26.521Z,26.53
2022-08-14T19:20:58.397Z,26.45
2022-08-14T19:23:42.903Z,26.03
2022-08-14T19:26:37.526Z,26.38
2022-08-14T19:29:39.801Z,26.32
2022-08-14T19:32:40.802Z,26.28
2022-08-14T19:35:56.084Z,26.30
2022-08-14T19:38:49.478Z,26.29
2022-08-14T19:41:22.514Z,26.13
2022-08-14T19:43:55.797Z,26.10
2022-08-14T19:46:38.725Z,26.03
2022-08-14T19:49:21.367Z,25.93
2022-08-14T19:51:51.554Z,25.90
2022-08-14T19:54:19.522Z,25.76
2022-08-14T19:56:47.838Z,25.24
2022-08-14T19:59:20.714Z,25.77
2022-08-14T20:01:52.247Z,25.65
2022-08-14T20:04:46.312Z,25.82
2022-08-14T20:08:00.348Z,25.73
2022-08-14T20:11:05.838Z,25.65
2022-08-14T20:13:15.474Z,25.55
2022-08-14T20:15:53.418Z,25.53
2022-08-14T20:18:49.626Z,25.61
2022-08-14T20:21:15.870Z,25.69
2022-08-14T20:23:44.224Z,24.75
2022-08-14T20:26:31.539Z,25.56
2022-08-14T20:29:04.563Z,25.62
2022-08-14T20:31:37.183Z,25.39
2022-08-14T20:34:18.824Z,25.22
2022-08-14T20:37:02.114Z,24.98
2022-08-14T20:39:34.476Z,25.00
2022-08-14T20:42:31.210Z,24.92
2022-08-14T20:45:24.307Z,25.10
2022-08-14T20:48:01.270Z,24.84
2022-08-14T20:50:31.880Z,25.01
2022-08-14T20:53:06.100Z,24.85
2022-08-14T20:55:41.520Z,24.77
2022-08-14T20:58:38.572Z,24.61
2022-08-14T21:01:35.784Z,24.02
2022-08-14T21:04:21.841Z,23.81
2022-08-14T21:07:25.045Z,23.83
2022-08-14T21:10:06.216Z,23.15
2022-08-14T21:12:34.627Z,23.74
2022-08-14T21:15:05.047Z,23.89
2022-08-14T21:17:43.157Z,23.73
2022-08-14T21:20:26.289Z,23.60
2022-08-14T21:23:00.469Z,23.99
2022-08-14T21:25:31.452Z,23.54
2022-08-14T21:28:04.744Z,23.90
2022-08-14T21:30:46.948Z,23.48
2022-08-14T21:33:22.716Z,23.50
2022-08-14T21:35:54.882Z,24.02
2022-08-14T21:38:33.764Z,23.84
2022-08-14T21:41:41.842Z,23.50
2022-08-14T21:44:18.371Z,23.66
2022-08-14T21:46:51.419Z,23.55
2022-08-14T21:49:25.684Z,23.75
2022-08-14T21:52:51.528Z,23.61
2022-08-14T21:55:00.179Z,23.58
2022-08-14T21:57:56.776Z,23.54
2022-08-14T22:00:34.724Z,23.68
2022-08-14T22:03:04.474Z,23.78
2022-08-14T22:05:34.354Z,23.20
2022-08-14T22:08:07.435Z,22.86
2022-08-14T22:10:41.546Z,23.21
2022-08-14T22:13:11.530Z,23.23
2022-08-14T22:15:43.831Z,23.36
2022-08-14T22:18:20.214Z,23.24
2022-08-14T22:20:53.768Z,23.02
2022-08-14T22:23:23.931Z,22.96
2022-08-14T22:25:52.711Z,22.77
2022-08-14T22:28:25.275Z,22.84
2022-08-14T22:30:57.596Z,22.83
2022-08-14T22:33:28.897Z,22.81
2022-08-14T22:36:01.651Z,22.75
2022-08-14T22:38:35.759Z,22.57
2022-08-14T22:41:27.985Z,22.39
2022-08-14T22:43:59.262Z,22.71
2022-08-14T22:46:27.751Z,22.78
2022-08-14T22:48:57.598Z,22.78
2022-08-14T22:51:28.140Z,22.71
2022-08-14T22:53:59.006Z,22.57
2022-08-14T22:56:30.675Z,22.62
2022-08-14T22:59:01.302Z,22.47
2022-08-14T23:01:55.677Z,22.48
2022-08-14T23:04:35.693Z,22.45
2022-08-14T23:07:23.157Z,22.24
2022-08-14T23:09:56.698Z,22.39
2022-08-14T23:12:29.291Z,22.37
2022-08-14T23:14:59.947Z,22.40
2022-08-14T23:17:39.447Z,21.33
2022-08-14T23:20:19.129Z,22.33
2022-08-14T23:22:53.066Z,22.44
2022-08-14T23:25:44.542Z,22.28
2022-08-14T23:28:33.603Z,22.08
2022-08-14T23:31:06.145Z,22.28
2022-08-14T23:33:45.683Z,22.29
2022-08-14T23:36:31.679Z,22.17
2022-08-14T23:39:10.612Z,22.05
2022-08-14T23:41:52.607Z,22.06
2022-08-14T23:44:24.326Z,21.99
2022-08-14T23:46:57.098Z,22.00
2022-08-14T23:49:55.467Z,21.76
2022-08-14T23:52:50.972Z,21.64
2022-08-14T23:55:11.538Z,21.60
2022-08-14T23:57:44.039Z,21.76
